createdAt,value
2018-04-15T00:01:01.126Z,0.00
2018-04-15T00:02:01.035Z,0.00
2018-04-15T00:03:57.072Z,0.00
2018-04-15T00:04:56.961Z,0.00
2018-04-15T00:06:50.956Z,0.00
2018-04-15T00:07:50.458Z,0.00
2018-04-15T00:09:46.545Z,0.00
2018-04-15T00:10:46.369Z,0.00
2018-04-15T00:12:42.487Z,0.00
2018-04-15T00:13:42.292Z,0.00
2018-04-15T00:15:38.600Z,0.00
2018-04-15T00:16:38.291Z,0.00
2018-04-15T00:18:35.266Z,0.00
2018-04-15T00:19:34.568Z,0.00
2018-04-15T00:21:30.653Z,0.00
2018-04-15T00:22:30.473Z,0.00
2018-04-15T00:24:26.625Z,0.00
2018-04-15T00:25:26.475Z,0.00
2018-04-15T00:27:22.487Z,0.00
2018-04-15T00:28:22.304Z,0.00
2018-04-15T00:30:18.903Z,0.00
2018-04-15T00:31:18.299Z,0.00
2018-04-15T00:33:14.494Z,0.00
2018-04-15T00:34:14.319Z,0.00
2018-04-15T00:36:10.514Z,0.00
2018-04-15T00:37:10.310Z,0.00
2018-04-15T00:39:06.533Z,0.00
2018-04-15T00:40:06.424Z,0.00
2018-04-15T00:42:02.499Z,0.00
2018-04-15T00:43:02.320Z,0.00
2018-04-15T00:44:58.521Z,0.00
2018-04-15T00:45:58.319Z,0.00
2018-04-15T00:47:54.830Z,0.00
2018-04-15T00:48:54.318Z,0.00
2018-04-15T00:50:51.837Z,0.00
2018-04-15T00:51:51.666Z,0.00
2018-04-15T00:53:48.186Z,0.00
2018-04-15T00:54:47.602Z,0.00
2018-04-15T00:56:44.099Z,0.00
2018-04-15T00:57:43.493Z,0.00
2018-04-15T00:59:39.547Z,0.00
2018-04-15T01:00:39.454Z,0.00
2018-04-15T01:02:35.948Z,0.00
2018-04-15T01:03:35.451Z,0.00
2018-04-15T01:05:31.616Z,0.00
2018-04-15T01:06:31.480Z,0.00
2018-04-15T01:08:28.010Z,0.00
2018-04-15T01:09:27.446Z,0.00
2018-04-15T01:11:23.577Z,0.00
2018-04-15T01:12:23.467Z,0.00
2018-04-15T01:14:19.530Z,0.00
2018-04-15T01:15:19.437Z,0.00
2018-04-15T01:17:15.542Z,0.00
2018-04-15T01:18:15.456Z,0.00
2018-04-15T01:20:11.565Z,0.00
2018-04-15T01:21:11.476Z,0.00
2018-04-15T01:23:08.771Z,0.00
2018-04-15T01:24:08.656Z,0.00
2018-04-15T01:26:05.137Z,0.00
2018-04-15T01:27:04.579Z,0.00
2018-04-15T01:29:01.078Z,0.00
2018-04-15T01:30:00.535Z,0.00
2018-04-15T01:31:56.647Z,0.00
2018-04-15T01:32:56.510Z,0.00
2018-04-15T01:34:52.583Z,0.00
2018-04-15T01:35:52.360Z,0.00
2018-04-15T01:37:48.583Z,0.00
2018-04-15T01:38:48.366Z,0.00
2018-04-15T01:40:44.586Z,0.00
2018-04-15T01:41:44.374Z,0.00
2018-04-15T01:43:40.595Z,0.00
2018-04-15T01:44:40.371Z,0.00
2018-04-15T01:46:36.655Z,0.00
2018-04-15T01:47:36.341Z,0.00
2018-04-15T01:49:32.370Z,0.00
2018-04-15T01:50:32.258Z,0.00
2018-04-15T01:52:28.855Z,0.00
2018-04-15T01:53:28.166Z,0.00
2018-04-15T01:55:24.206Z,0.00
2018-04-15T01:56:24.088Z,0.00
2018-04-15T01:58:20.684Z,0.00
2018-04-15T01:59:19.992Z,0.00
2018-04-15T02:01:16.078Z,0.00
2018-04-15T02:02:15.898Z,0.00
2018-04-15T02:04:09.909Z,0.00
2018-04-15T02:05:09.359Z,0.00
2018-04-15T02:07:05.364Z,0.00
2018-04-15T02:08:05.249Z,0.00
2018-04-15T02:10:02.261Z,0.00
2018-04-15T02:11:01.675Z,0.00
2018-04-15T02:12:57.738Z,0.00
2018-04-15T02:13:57.591Z,0.00
2018-04-15T02:15:53.636Z,0.00
2018-04-15T02:16:53.522Z,0.00
2018-04-15T02:18:50.132Z,0.00
2018-04-15T02:19:49.547Z,0.00
2018-04-15T02:21:46.072Z,0.00
2018-04-15T02:22:45.525Z,0.00
2018-04-15T02:24:41.628Z,0.00
2018-04-15T02:25:41.529Z,0.00
2018-04-15T02:27:38.041Z,0.00
2018-04-15T02:28:37.537Z,0.00
2018-04-15T02:30:33.640Z,0.00
2018-04-15T02:31:33.519Z,0.00
2018-04-15T02:33:30.078Z,0.00
2018-04-15T02:34:29.548Z,0.00
2018-04-15T02:36:25.669Z,0.00
2018-04-15T02:37:25.535Z,0.00
2018-04-15T02:39:22.049Z,0.00
2018-04-15T02:40:21.523Z,0.00
2018-04-15T02:42:28.164Z,0.00
2018-04-15T02:43:28.051Z,0.00
2018-04-15T02:45:24.651Z,0.00
2018-04-15T02:46:24.214Z,0.00
2018-04-15T02:48:17.551Z,0.00
2018-04-15T02:49:17.425Z,0.00
2018-04-15T02:51:15.070Z,0.00
2018-04-15T02:52:13.422Z,0.00
2018-04-15T02:54:09.928Z,0.00
2018-04-15T02:55:09.429Z,0.00
2018-04-15T02:57:05.585Z,0.00
2018-04-15T02:58:05.437Z,0.00
2018-04-15T03:00:00.517Z,0.00
2018-04-15T03:00:59.884Z,0.00
2018-04-15T03:02:56.775Z,0.00
2018-04-15T03:03:56.678Z,0.00
2018-04-15T03:05:53.181Z,0.00
2018-04-15T03:06:52.635Z,0.00
2018-04-15T03:08:49.105Z,0.00
2018-04-15T03:09:48.633Z,0.00
2018-04-15T03:11:45.119Z,0.00
2018-04-15T03:12:44.463Z,0.00
2018-04-15T03:14:40.667Z,0.00
2018-04-15T03:15:40.460Z,0.00
2018-04-15T03:17:37.119Z,0.00
2018-04-15T03:18:36.464Z,0.00
2018-04-15T03:20:32.692Z,0.00
2018-04-15T03:21:32.452Z,0.00
2018-04-15T03:23:28.655Z,0.00
2018-04-15T03:24:28.447Z,0.00
2018-04-15T03:26:24.544Z,0.00
2018-04-15T03:27:24.351Z,0.00
2018-04-15T03:29:20.394Z,0.00
2018-04-15T03:30:20.277Z,0.00
2018-04-15T03:32:17.052Z,0.00
2018-04-15T03:33:16.883Z,0.00
2018-04-15T03:35:13.407Z,0.00
2018-04-15T03:36:12.816Z,0.00
2018-04-15T03:38:08.936Z,0.00
2018-04-15T03:39:08.716Z,0.00
2018-04-15T03:41:04.788Z,0.00
2018-04-15T03:42:04.658Z,0.00
2018-04-15T03:44:01.184Z,0.00
2018-04-15T03:45:00.636Z,0.00
2018-04-15T03:46:57.087Z,0.00
2018-04-15T03:47:56.494Z,0.00
2018-04-15T03:49:52.689Z,0.00
2018-04-15T03:50:52.490Z,0.00
2018-04-15T03:52:48.730Z,0.00
2018-04-15T03:53:48.499Z,0.00
2018-04-15T03:55:44.713Z,0.00
2018-04-15T03:56:44.499Z,0.00
2018-04-15T03:58:41.015Z,0.00
2018-04-15T03:59:40.627Z,0.00
2018-04-15T04:01:36.697Z,0.00
2018-04-15T04:02:36.478Z,0.00
2018-04-15T04:04:32.700Z,0.00
2018-04-15T04:05:32.496Z,0.00
2018-04-15T04:07:30.030Z,0.00
2018-04-15T04:08:29.281Z,0.00
2018-04-15T04:10:25.320Z,0.00
2018-04-15T04:11:25.231Z,0.00
2018-04-15T04:13:21.705Z,0.00
2018-04-15T04:14:21.104Z,0.00
2018-04-15T04:16:17.157Z,0.00
2018-04-15T04:17:17.033Z,0.00
2018-04-15T04:19:13.533Z,0.00
2018-04-15T04:20:12.932Z,0.00
2018-04-15T04:22:08.964Z,0.00
2018-04-15T04:23:08.829Z,0.00
2018-04-15T04:25:04.861Z,0.00
2018-04-15T04:26:04.789Z,0.00
2018-04-15T04:28:00.811Z,0.00
2018-04-15T04:29:00.701Z,0.00
2018-04-15T04:30:57.165Z,0.00
2018-04-15T04:31:56.676Z,0.00
2018-04-15T04:33:52.728Z,0.00
2018-04-15T04:34:52.520Z,0.00
2018-04-15T04:36:48.782Z,0.00
2018-04-15T04:37:48.525Z,0.00
2018-04-15T04:39:44.707Z,0.00
2018-04-15T04:40:44.517Z,0.00
2018-04-15T04:42:41.025Z,0.00
2018-04-15T04:43:40.410Z,0.00
2018-04-15T04:45:36.501Z,0.00
2018-04-15T04:46:36.346Z,0.00
2018-04-15T04:48:33.574Z,0.00
2018-04-15T04:49:33.236Z,0.00
2018-04-15T04:51:27.763Z,0.00
2018-04-15T04:52:27.565Z,0.00
2018-04-15T04:54:23.705Z,0.00
2018-04-15T04:55:23.587Z,0.00
2018-04-15T04:57:19.691Z,0.00
2018-04-15T04:58:19.597Z,0.00
2018-04-15T05:00:15.735Z,0.00
2018-04-15T05:01:15.615Z,0.00
2018-04-15T05:03:11.768Z,0.00
2018-04-15T05:04:11.601Z,0.00
2018-04-15T05:06:09.109Z,0.00
2018-04-15T05:07:08.431Z,5.63
2018-04-15T05:09:04.632Z,5.63
2018-04-15T05:10:04.428Z,5.63
2018-04-15T05:12:00.899Z,5.63
2018-04-15T05:13:00.350Z,5.63
2018-04-15T05:14:56.467Z,5.63
2018-04-15T05:15:56.296Z,5.63
2018-04-15T05:17:52.850Z,5.63
2018-04-15T05:18:52.190Z,5.63
2018-04-15T05:20:48.826Z,5.63
2018-04-15T05:21:48.115Z,5.63
2018-04-15T05:23:42.116Z,5.63
2018-04-15T05:24:41.569Z,5.63
2018-04-15T05:26:38.757Z,5.63
2018-04-15T05:27:38.454Z,5.63
2018-04-15T05:29:35.923Z,5.63
2018-04-15T05:30:35.199Z,5.63
2018-04-15T05:32:31.677Z,5.63
2018-04-15T05:33:31.116Z,5.63
2018-04-15T05:35:27.188Z,5.63
2018-04-15T05:36:27.055Z,5.63
2018-04-15T05:38:23.082Z,5.63
2018-04-15T05:39:22.963Z,5.63
2018-04-15T05:41:18.995Z,11.25
2018-04-15T05:42:18.879Z,11.25
2018-04-15T05:44:14.933Z,11.25
2018-04-15T05:45:14.816Z,11.25
2018-04-15T05:47:12.216Z,11.25
2018-04-15T05:48:10.784Z,11.25
2018-04-15T05:50:07.251Z,5.63
2018-04-15T05:51:06.684Z,5.63
2018-04-15T05:53:02.824Z,5.63
2018-04-15T05:54:02.603Z,5.63
2018-04-15T05:55:57.135Z,11.25
2018-04-15T05:56:56.803Z,11.25
2018-04-15T05:58:53.287Z,11.25
2018-04-15T05:59:52.751Z,11.25
2018-04-15T06:01:48.925Z,11.25
2018-04-15T06:02:48.613Z,11.25
2018-04-15T06:04:44.839Z,11.25
2018-04-15T06:05:44.689Z,11.25
2018-04-15T06:07:40.850Z,11.25
2018-04-15T06:08:40.621Z,11.25
2018-04-15T06:10:37.123Z,11.25
2018-04-15T06:11:36.696Z,11.25
2018-04-15T06:13:32.847Z,11.25
2018-04-15T06:14:32.620Z,11.25
2018-04-15T06:16:28.454Z,11.25
2018-04-15T06:17:28.326Z,11.25
2018-04-15T06:19:25.000Z,11.25
2018-04-15T06:20:24.312Z,11.25
2018-04-15T06:22:20.915Z,11.25
2018-04-15T06:23:20.213Z,11.25
2018-04-15T06:25:16.241Z,16.88
2018-04-15T06:26:16.128Z,16.88
2018-04-15T06:28:09.781Z,16.88
2018-04-15T06:29:09.853Z,16.88
2018-04-15T06:31:06.172Z,16.88
2018-04-15T06:32:05.702Z,16.88
2018-04-15T06:34:01.867Z,16.88
2018-04-15T06:35:01.710Z,16.88
2018-04-15T06:36:57.878Z,16.88
2018-04-15T06:37:57.763Z,16.88
2018-04-15T06:39:53.966Z,16.88
2018-04-15T06:40:53.767Z,16.88
2018-04-15T06:42:50.270Z,16.88
2018-04-15T06:43:49.753Z,16.88
2018-04-15T06:45:45.897Z,16.88
2018-04-15T06:46:45.782Z,16.88
2018-04-15T06:48:41.926Z,16.88
2018-04-15T06:49:41.797Z,16.88
2018-04-15T06:51:37.890Z,16.88
2018-04-15T06:52:37.756Z,16.88
2018-04-15T06:54:34.258Z,16.88
2018-04-15T06:55:33.771Z,16.88
2018-04-15T06:57:29.899Z,16.88
2018-04-15T06:58:29.779Z,16.88
2018-04-15T07:00:25.909Z,16.88
2018-04-15T07:02:42.131Z,22.50
2018-04-15T07:03:42.010Z,22.50
2018-04-15T07:05:38.499Z,22.50
2018-04-15T07:06:37.914Z,22.50
2018-04-15T07:08:33.949Z,22.50
2018-04-15T07:09:33.825Z,22.50
2018-04-15T07:11:29.904Z,22.50
2018-04-15T07:12:29.787Z,22.50
2018-04-15T07:14:25.946Z,22.50
2018-04-15T07:15:25.817Z,22.50
2018-04-15T07:17:22.336Z,22.50
2018-04-15T07:18:21.803Z,22.50
2018-04-15T07:20:17.900Z,22.50
2018-04-15T07:21:17.797Z,22.50
2018-04-15T07:23:14.143Z,22.50
2018-04-15T07:24:14.031Z,22.50
2018-04-15T07:26:10.084Z,22.50
2018-04-15T07:27:09.962Z,22.50
2018-04-15T07:29:06.426Z,22.50
2018-04-15T07:30:05.851Z,22.50
2018-04-15T07:32:01.952Z,22.50
2018-04-15T07:33:01.819Z,22.50
2018-04-15T07:34:58.217Z,22.50
2018-04-15T07:35:57.951Z,22.50
2018-04-15T07:37:54.012Z,22.50
2018-04-15T07:38:53.884Z,28.13
2018-04-15T07:40:47.949Z,28.13
2018-04-15T07:41:48.199Z,22.50
2018-04-15T07:43:43.382Z,22.50
2018-04-15T07:44:43.249Z,28.13
2018-04-15T07:46:39.349Z,22.50
2018-04-15T07:47:39.216Z,28.13
2018-04-15T07:49:36.198Z,28.13
2018-04-15T07:50:35.968Z,28.13
2018-04-15T07:52:32.039Z,28.13
2018-04-15T07:53:31.893Z,28.13
2018-04-15T07:55:25.958Z,33.75
2018-04-15T07:56:25.769Z,28.13
2018-04-15T07:58:22.273Z,28.13
2018-04-15T07:59:21.797Z,33.75
2018-04-15T08:01:18.263Z,33.75
2018-04-15T08:02:17.867Z,33.75
2018-04-15T08:04:14.350Z,33.75
2018-04-15T08:05:13.901Z,33.75
2018-04-15T08:07:10.350Z,39.38
2018-04-15T08:08:09.899Z,39.38
2018-04-15T08:10:07.381Z,39.38
2018-04-15T08:11:05.841Z,39.38
2018-04-15T08:13:02.085Z,39.38
2018-04-15T08:14:01.920Z,39.38
2018-04-15T08:15:58.394Z,39.38
2018-04-15T08:16:57.862Z,39.38
2018-04-15T08:18:54.072Z,39.38
2018-04-15T08:19:53.947Z,45.00
2018-04-15T08:21:47.575Z,45.00
2018-04-15T08:22:47.429Z,45.00
2018-04-15T08:24:43.485Z,50.63
2018-04-15T08:25:43.373Z,50.63
2018-04-15T08:27:39.389Z,50.63
2018-04-15T08:28:39.274Z,50.63
2018-04-15T08:29:39.254Z,50.63
2018-04-15T08:30:39.237Z,56.25
2018-04-15T08:31:39.234Z,56.25
2018-04-15T08:32:39.198Z,56.25
2018-04-15T08:33:39.178Z,56.25
2018-04-15T08:34:39.156Z,56.25
2018-04-15T08:35:39.134Z,56.25
2018-04-15T08:36:39.118Z,56.25
2018-04-15T08:37:39.101Z,61.88
2018-04-15T08:38:39.078Z,61.88
2018-04-15T08:39:39.052Z,61.88
2018-04-15T08:40:39.043Z,61.88
2018-04-15T08:41:39.015Z,61.88
2018-04-15T08:42:39.040Z,61.88
2018-04-15T08:43:39.036Z,61.88
2018-04-15T08:44:39.028Z,56.25
2018-04-15T08:45:38.940Z,61.88
2018-04-15T08:46:38.920Z,61.88
2018-04-15T08:47:38.904Z,61.88
2018-04-15T08:48:38.904Z,61.88
2018-04-15T08:49:38.925Z,61.88
2018-04-15T08:50:38.911Z,67.50
2018-04-15T08:51:38.933Z,73.13
2018-04-15T08:52:38.922Z,78.75
2018-04-15T08:53:38.853Z,73.13
2018-04-15T08:54:38.766Z,78.75
2018-04-15T08:55:38.742Z,90.00
2018-04-15T08:56:38.727Z,106.88
2018-04-15T08:57:38.715Z,112.50
2018-04-15T08:58:38.692Z,118.13
2018-04-15T08:59:38.668Z,118.13
2018-04-15T09:00:38.654Z,146.25
2018-04-15T09:01:38.637Z,157.50
2018-04-15T09:02:38.615Z,163.13
2018-04-15T09:03:38.596Z,168.75
2018-04-15T09:04:38.580Z,180.00
2018-04-15T09:05:38.564Z,180.00
2018-04-15T09:06:38.541Z,191.25
2018-04-15T09:07:38.522Z,202.50
2018-04-15T09:08:38.505Z,213.75
2018-04-15T09:09:38.491Z,219.38
2018-04-15T09:10:38.474Z,219.38
2018-04-15T09:11:38.451Z,230.63
2018-04-15T09:12:38.435Z,236.25
2018-04-15T09:13:38.416Z,236.25
2018-04-15T09:14:38.412Z,247.50
2018-04-15T09:15:38.380Z,253.13
2018-04-15T09:16:38.361Z,258.75
2018-04-15T09:17:38.363Z,264.38
2018-04-15T09:18:39.386Z,270.00
2018-04-15T09:19:38.314Z,275.63
2018-04-15T09:20:38.291Z,275.63
2018-04-15T09:21:38.282Z,281.25
2018-04-15T09:22:38.261Z,281.25
2018-04-15T09:23:38.242Z,286.88
2018-04-15T09:24:38.231Z,281.25
2018-04-15T09:25:38.212Z,281.25
2018-04-15T09:26:38.193Z,247.50
2018-04-15T09:27:38.174Z,196.88
2018-04-15T09:28:38.182Z,174.38
2018-04-15T09:29:38.187Z,191.25
2018-04-15T09:30:38.125Z,191.25
2018-04-15T09:31:38.146Z,208.13
2018-04-15T09:32:38.151Z,208.13
2018-04-15T09:33:38.083Z,129.38
2018-04-15T09:34:38.063Z,168.75
2018-04-15T09:35:38.053Z,185.63
2018-04-15T09:36:38.027Z,157.50
2018-04-15T09:37:38.020Z,185.63
2018-04-15T09:38:37.999Z,191.25
2018-04-15T09:39:38.476Z,258.75
2018-04-15T09:40:37.968Z,258.75
2018-04-15T09:41:37.955Z,309.38
2018-04-15T09:42:37.936Z,225.00
2018-04-15T09:43:37.911Z,191.25
2018-04-15T09:44:37.896Z,281.25
2018-04-15T09:45:37.879Z,281.25
2018-04-15T09:46:37.866Z,275.63
2018-04-15T09:47:37.849Z,275.63
2018-04-15T09:48:37.832Z,303.75
2018-04-15T09:49:37.812Z,225.00
2018-04-15T09:50:37.806Z,202.50
2018-04-15T09:51:37.787Z,247.50
2018-04-15T09:52:37.813Z,286.88
2018-04-15T09:53:37.758Z,309.38
2018-04-15T09:54:37.734Z,270.00
2018-04-15T09:55:37.721Z,298.13
2018-04-15T09:56:37.708Z,213.75
2018-04-15T09:57:37.691Z,315.00
2018-04-15T09:58:37.670Z,320.63
2018-04-15T09:59:37.669Z,253.13
2018-04-15T10:00:37.637Z,303.75
2018-04-15T10:01:37.631Z,292.50
2018-04-15T10:02:37.605Z,303.75
2018-04-15T10:03:37.589Z,253.13
2018-04-15T10:04:37.574Z,230.63
2018-04-15T10:05:37.556Z,202.50
2018-04-15T10:06:37.541Z,151.88
2018-04-15T10:07:37.524Z,191.25
2018-04-15T10:08:37.510Z,236.25
2018-04-15T10:09:37.495Z,191.25
2018-04-15T10:10:37.482Z,196.88
2018-04-15T10:11:37.463Z,168.75
2018-04-15T10:12:37.449Z,163.13
2018-04-15T10:13:37.443Z,196.88
2018-04-15T10:14:37.416Z,225.00
2018-04-15T10:15:37.400Z,146.25
2018-04-15T10:16:37.392Z,123.75
2018-04-15T10:17:37.364Z,123.75
2018-04-15T10:18:37.353Z,174.38
2018-04-15T10:19:37.541Z,236.25
2018-04-15T10:20:37.325Z,185.63
2018-04-15T10:21:37.302Z,140.63
2018-04-15T10:22:37.382Z,151.88
2018-04-15T10:23:37.321Z,163.13
2018-04-15T10:24:37.320Z,180.00
2018-04-15T10:25:37.309Z,129.38
2018-04-15T10:26:37.228Z,163.13
2018-04-15T10:27:37.209Z,230.63
2018-04-15T10:28:37.217Z,196.88
2018-04-15T10:29:37.197Z,174.38
2018-04-15T10:30:37.160Z,118.13
2018-04-15T10:31:37.149Z,146.25
2018-04-15T10:32:37.148Z,140.63
2018-04-15T10:33:37.111Z,95.63
2018-04-15T10:34:37.100Z,90.00
2018-04-15T10:35:37.085Z,112.50
2018-04-15T10:36:37.062Z,112.50
2018-04-15T10:37:37.051Z,140.63
2018-04-15T10:38:37.031Z,157.50
2018-04-15T10:39:37.028Z,140.63
2018-04-15T10:40:37.019Z,129.38
2018-04-15T10:41:37.027Z,191.25
2018-04-15T10:42:37.015Z,151.88
2018-04-15T10:43:37.021Z,151.88
2018-04-15T10:44:36.992Z,129.38
2018-04-15T10:45:37.027Z,135.00
2018-04-15T10:46:36.946Z,202.50
2018-04-15T10:47:36.956Z,258.75
2018-04-15T10:48:36.875Z,118.13
2018-04-15T10:49:36.855Z,112.50
2018-04-15T10:50:36.838Z,157.50
2018-04-15T10:51:36.820Z,185.63
2018-04-15T10:52:36.806Z,140.63
2018-04-15T10:53:36.789Z,140.63
2018-04-15T10:54:36.813Z,106.88
2018-04-15T10:55:36.765Z,101.25
2018-04-15T10:56:36.740Z,101.25
2018-04-15T10:59:11.803Z,84.38
2018-04-15T11:00:11.713Z,101.25
2018-04-15T11:02:07.794Z,123.75
2018-04-15T11:03:07.665Z,78.75
2018-04-15T11:05:03.727Z,78.75
2018-04-15T11:06:03.569Z,84.38
2018-04-15T11:07:59.680Z,84.38
2018-04-15T11:08:59.465Z,78.75
2018-04-15T11:10:55.615Z,78.75
2018-04-15T11:11:55.447Z,78.75
2018-04-15T11:13:51.941Z,67.50
2018-04-15T11:16:07.878Z,73.13
2018-04-15T11:17:07.303Z,95.63
2018-04-15T11:19:03.438Z,78.75
2018-04-15T11:20:03.328Z,270.00
2018-04-15T11:21:59.556Z,427.50
2018-04-15T11:22:59.156Z,157.50
2018-04-15T11:24:55.673Z,180.00
2018-04-15T11:25:55.135Z,275.63
2018-04-15T11:27:52.155Z,607.50
2018-04-15T11:28:52.039Z,185.63
2018-04-15T11:30:48.620Z,753.75
2018-04-15T11:31:48.059Z,866.25
2018-04-15T11:33:44.267Z,725.63
2018-04-15T11:34:44.113Z,416.25
2018-04-15T11:36:40.326Z,225.00
2018-04-15T11:37:40.127Z,213.75
2018-04-15T11:39:36.655Z,241.88
2018-04-15T11:40:36.064Z,196.88
2018-04-15T11:42:32.185Z,444.38
2018-04-15T11:43:32.091Z,545.63
2018-04-15T11:45:28.589Z,455.63
2018-04-15T11:46:28.140Z,388.13
2018-04-15T11:48:24.186Z,444.38
2018-04-15T11:49:24.095Z,478.13
2018-04-15T11:51:20.620Z,168.75
2018-04-15T11:52:20.195Z,146.25
2018-04-15T11:54:16.207Z,168.75
2018-04-15T11:55:16.115Z,140.63
2018-04-15T11:57:12.171Z,78.75
2018-04-15T11:58:12.082Z,84.38
2018-04-15T12:00:08.239Z,84.38
2018-04-15T12:01:08.110Z,101.25
2018-04-15T12:03:04.631Z,118.13
2018-04-15T12:04:04.085Z,95.63
2018-04-15T12:06:00.272Z,106.88
2018-04-15T12:07:00.075Z,112.50
2018-04-15T12:08:56.366Z,90.00
2018-04-15T12:09:56.220Z,84.38
2018-04-15T12:11:51.271Z,123.75
2018-04-15T12:12:50.642Z,129.38
2018-04-15T12:14:47.368Z,118.13
2018-04-15T12:15:46.589Z,78.75
2018-04-15T12:17:42.639Z,106.88
2018-04-15T12:18:42.538Z,123.75
2018-04-15T12:20:38.671Z,129.38
2018-04-15T12:21:38.535Z,129.38
2018-04-15T12:23:32.052Z,129.38
2018-04-15T12:24:31.960Z,118.13
2018-04-15T12:26:28.459Z,106.88
2018-04-15T12:27:28.181Z,106.88
2018-04-15T12:29:24.121Z,106.88
2018-04-15T12:30:24.031Z,90.00
2018-04-15T12:32:21.881Z,78.75
2018-04-15T12:33:20.137Z,73.13
2018-04-15T12:35:16.201Z,67.50
2018-04-15T12:36:16.018Z,61.88
2018-04-15T12:38:12.296Z,50.63
2018-04-15T12:39:12.099Z,50.63
2018-04-15T12:41:06.505Z,73.13
2018-04-15T12:42:06.401Z,73.13
2018-04-15T12:44:02.453Z,90.00
2018-04-15T12:45:02.315Z,101.25
2018-04-15T12:46:58.493Z,90.00
2018-04-15T12:47:58.205Z,78.75
2018-04-15T12:49:52.213Z,73.13
2018-04-15T12:50:51.695Z,67.50
2018-04-15T12:52:45.783Z,67.50
2018-04-15T12:53:45.180Z,61.88
2018-04-15T12:55:49.602Z,67.50
2018-04-15T12:56:49.179Z,73.13
2018-04-15T12:58:45.305Z,84.38
2018-04-15T12:59:45.163Z,73.13
2018-04-15T13:01:41.249Z,67.50
2018-04-15T13:02:41.122Z,56.25
2018-04-15T13:04:34.570Z,50.63
2018-04-15T13:05:34.487Z,56.25
2018-04-15T13:07:28.151Z,67.50
2018-04-15T13:08:28.046Z,73.13
2018-04-15T13:10:24.539Z,67.50
2018-04-15T13:11:24.184Z,67.50
2018-04-15T13:13:20.238Z,61.88
2018-04-15T13:14:20.157Z,61.88
2018-04-15T13:15:20.121Z,56.25
2018-04-15T13:16:20.105Z,56.25
2018-04-15T13:17:20.089Z,61.88
2018-04-15T13:18:20.069Z,56.25
2018-04-15T13:19:20.052Z,50.63
2018-04-15T13:20:20.039Z,56.25
2018-04-15T13:21:20.028Z,50.63
2018-04-15T13:22:20.005Z,50.63
2018-04-15T13:23:19.998Z,56.25
2018-04-15T13:24:19.977Z,56.25
2018-04-15T13:25:19.962Z,56.25
2018-04-15T13:26:19.941Z,50.63
2018-04-15T13:27:19.924Z,45.00
2018-04-15T13:28:19.911Z,45.00
2018-04-15T13:29:19.918Z,45.00
2018-04-15T13:30:19.877Z,45.00
2018-04-15T13:31:19.860Z,39.38
2018-04-15T13:32:19.850Z,33.75
2018-04-15T13:33:19.832Z,39.38
2018-04-15T13:34:19.831Z,50.63
2018-04-15T13:35:19.828Z,50.63
2018-04-15T13:36:19.829Z,50.63
2018-04-15T13:37:19.766Z,45.00
2018-04-15T13:38:19.744Z,45.00
2018-04-15T13:39:19.734Z,39.38
2018-04-15T13:40:19.717Z,33.75
2018-04-15T13:41:19.704Z,33.75
2018-04-15T13:42:19.681Z,33.75
2018-04-15T13:43:19.664Z,33.75
2018-04-15T13:44:19.650Z,33.75
2018-04-15T13:45:19.632Z,39.38
2018-04-15T13:46:19.618Z,39.38
2018-04-15T13:47:19.600Z,39.38
2018-04-15T13:48:19.590Z,45.00
2018-04-15T13:49:19.574Z,45.00
2018-04-15T13:50:19.549Z,45.00
2018-04-15T13:51:19.536Z,45.00
2018-04-15T13:52:19.528Z,45.00
2018-04-15T13:53:19.562Z,45.00
2018-04-15T13:54:19.507Z,50.63
2018-04-15T13:55:19.470Z,50.63
2018-04-15T13:56:19.461Z,50.63
2018-04-15T13:57:19.440Z,50.63
2018-04-15T13:58:19.421Z,50.63
2018-04-15T13:59:19.413Z,50.63
2018-04-15T14:00:19.393Z,50.63
2018-04-15T14:01:19.382Z,50.63
2018-04-15T14:02:19.361Z,50.63
2018-04-15T14:03:19.342Z,45.00
2018-04-15T14:04:19.325Z,50.63
2018-04-15T14:05:19.308Z,50.63
2018-04-15T14:06:19.296Z,45.00
2018-04-15T14:07:19.277Z,45.00
2018-04-15T14:08:19.259Z,50.63
2018-04-15T14:09:19.248Z,50.63
2018-04-15T14:10:19.255Z,50.63
2018-04-15T14:11:19.252Z,50.63
2018-04-15T14:12:19.262Z,50.63
2018-04-15T14:13:55.153Z,50.63
2018-04-15T14:14:19.251Z,45.00
2018-04-15T14:15:19.250Z,45.00
2018-04-15T14:16:19.235Z,45.00
2018-04-15T14:17:19.216Z,45.00
2018-04-15T14:18:19.200Z,45.00
2018-04-15T14:19:19.148Z,39.38
2018-04-15T14:20:19.068Z,39.38
2018-04-15T14:21:19.054Z,33.75
2018-04-15T14:22:19.035Z,33.75
2018-04-15T14:23:19.022Z,33.75
2018-04-15T14:24:19.001Z,33.75
2018-04-15T14:25:19.003Z,33.75
2018-04-15T14:26:18.969Z,33.75
2018-04-15T14:27:18.956Z,33.75
2018-04-15T14:28:18.988Z,33.75
2018-04-15T14:29:18.920Z,33.75
2018-04-15T14:30:18.909Z,28.13
2018-04-15T14:31:18.892Z,28.13
2018-04-15T14:32:18.885Z,28.13
2018-04-15T14:33:18.856Z,28.13
2018-04-15T14:34:18.839Z,28.13
2018-04-15T14:35:18.826Z,33.75
2018-04-15T14:36:18.809Z,28.13
2018-04-15T14:37:18.792Z,28.13
2018-04-15T14:38:18.775Z,28.13
2018-04-15T14:39:18.765Z,28.13
2018-04-15T14:40:18.741Z,28.13
2018-04-15T14:41:18.729Z,28.13
2018-04-15T14:42:18.735Z,28.13
2018-04-15T14:43:18.694Z,28.13
2018-04-15T14:44:25.602Z,28.13
2018-04-15T14:45:18.662Z,28.13
2018-04-15T14:46:20.044Z,28.13
2018-04-15T14:47:18.634Z,28.13
2018-04-15T14:48:18.617Z,28.13
2018-04-15T14:49:18.616Z,28.13
2018-04-15T14:50:18.585Z,28.13
2018-04-15T14:51:18.573Z,28.13
2018-04-15T14:52:18.551Z,28.13
2018-04-15T14:53:18.536Z,28.13
2018-04-15T14:54:18.517Z,28.13
2018-04-15T14:55:18.507Z,28.13
2018-04-15T14:56:18.486Z,28.13
2018-04-15T14:57:18.472Z,22.50
2018-04-15T14:58:18.453Z,22.50
2018-04-15T14:59:18.439Z,22.50
2018-04-15T15:00:18.424Z,22.50
2018-04-15T15:01:18.408Z,28.13
2018-04-15T15:02:18.392Z,28.13
2018-04-15T15:03:18.377Z,28.13
2018-04-15T15:04:18.364Z,28.13
2018-04-15T15:05:18.346Z,28.13
2018-04-15T15:06:18.327Z,28.13
2018-04-15T15:07:18.871Z,22.50
2018-04-15T15:08:18.298Z,22.50
2018-04-15T15:09:18.275Z,22.50
2018-04-15T15:10:18.261Z,22.50
2018-04-15T15:11:18.255Z,22.50
2018-04-15T15:12:18.229Z,22.50
2018-04-15T15:13:18.214Z,22.50
2018-04-15T15:14:18.193Z,22.50
2018-04-15T15:15:18.179Z,22.50
2018-04-15T15:16:18.161Z,22.50
2018-04-15T15:17:18.144Z,22.50
2018-04-15T15:18:18.132Z,22.50
2018-04-15T15:19:18.124Z,22.50
2018-04-15T15:20:18.096Z,22.50
2018-04-15T15:21:18.145Z,22.50
2018-04-15T15:22:18.068Z,22.50
2018-04-15T15:23:18.049Z,22.50
2018-04-15T15:24:18.031Z,22.50
2018-04-15T15:25:18.021Z,22.50
2018-04-15T15:26:17.999Z,22.50
2018-04-15T15:27:17.983Z,22.50
2018-04-15T15:28:18.075Z,22.50
2018-04-15T15:29:17.951Z,22.50
2018-04-15T15:30:17.972Z,22.50
2018-04-15T15:31:17.918Z,22.50
2018-04-15T15:32:17.903Z,22.50
2018-04-15T15:33:17.884Z,22.50
2018-04-15T15:34:17.878Z,22.50
2018-04-15T15:35:17.863Z,22.50
2018-04-15T15:36:17.841Z,22.50
2018-04-15T15:37:17.820Z,22.50
2018-04-15T15:38:17.816Z,22.50
2018-04-15T15:39:17.789Z,22.50
2018-04-15T15:40:17.774Z,22.50
2018-04-15T15:41:17.767Z,16.88
2018-04-15T15:42:17.735Z,16.88
2018-04-15T15:43:17.723Z,16.88
2018-04-15T15:44:17.709Z,16.88
2018-04-15T15:45:17.695Z,16.88
2018-04-15T15:46:17.673Z,22.50
2018-04-15T15:47:17.667Z,22.50
2018-04-15T15:48:17.645Z,16.88
2018-04-15T15:49:17.623Z,16.88
2018-04-15T15:50:17.607Z,16.88
2018-04-15T15:51:17.609Z,16.88
2018-04-15T15:52:17.576Z,16.88
2018-04-15T15:53:17.560Z,16.88
2018-04-15T15:54:17.553Z,16.88
2018-04-15T15:55:17.526Z,16.88
2018-04-15T15:56:17.511Z,16.88
2018-04-15T15:57:17.492Z,16.88
2018-04-15T15:58:17.478Z,16.88
2018-04-15T15:59:17.472Z,16.88
2018-04-15T16:00:17.446Z,16.88
2018-04-15T16:01:17.432Z,16.88
2018-04-15T16:02:17.413Z,16.88
2018-04-15T16:03:17.404Z,16.88
2018-04-15T16:04:17.385Z,16.88
2018-04-15T16:05:17.372Z,16.88
2018-04-15T16:06:17.353Z,16.88
2018-04-15T16:07:17.358Z,16.88
2018-04-15T16:08:17.363Z,16.88
2018-04-15T16:09:17.361Z,16.88
2018-04-15T16:10:17.415Z,16.88
2018-04-15T16:11:17.361Z,16.88
2018-04-15T16:12:17.407Z,11.25
2018-04-15T16:13:17.348Z,11.25
2018-04-15T16:14:17.269Z,11.25
2018-04-15T16:15:39.131Z,11.25
2018-04-15T16:16:17.181Z,11.25
2018-04-15T16:17:17.165Z,11.25
2018-04-15T16:18:17.149Z,11.25
2018-04-15T16:19:17.136Z,11.25
2018-04-15T16:20:17.129Z,11.25
2018-04-15T16:21:17.098Z,11.25
2018-04-15T16:22:17.099Z,5.63